ADDS METAR Data INFO
IDs: Format: Raw Decoded Include TAF

Data at: 1845 UTC 17 Oct 2017

PAMY 171756Z AUTO 06013KT 10SM OVC026 03/00 A2947 RMK AO2 SLP983 T00280000 10028 20022 53010
PAMY 171656Z AUTO 05012KT 10SM FEW020 BKN028 OVC035 03/M01 A2946 RMK AO2 SLP977 T00281006
PAMY 171556Z AUTO 05014KT 10SM FEW018 SCT025 BKN032 03/00 A2944 RMK AO2 SLP973 T00280000
PAMY 171456Z AUTO 06012KT 10SM FEW020 02/00 A2944 RMK AO2 SLP972 T00220000 56003 FZRANO
PAMY 171356Z AUTO 07008KT 10SM SCT021 02/00 A2944 RMK AO2 SLP972 T00220000 FZRANO
PAMY 171256Z AUTO 08009KT 10SM BKN023 02/01 A2945 RMK AO2 SLP975 T00220006 FZRANO
PAMY 171233Z AUTO 08008KT 10SM BKN021 BKN028 02/01 A2945 RMK AO2 FZRANO
PAMY 171156Z AUTO 08008KT 10SM BKN024 02/01 A2945 RMK AO2 SLP976 60000 70001 T00220011 10022 21033 58013 FZRANO
PAMY 171056Z AUTO 09008KT 10SM SCT020 BKN026 02/01 A2947 RMK AO2 SLP981 T00170011 FZRANO
PAMY 171021Z AUTO 10006KT 10SM FEW021 BKN031 00/M01 A2947 RMK AO2 FZRANO
PAMY 170956Z AUTO 11004KT FEW017 BKN024 BKN029 M01/M02 A2948 RMK AO2 SLP985 T10111017 PWINO FZRANO $
PAMY 170848Z AUTO 16006KT 10SM BKN023 BKN036 M01/M02 A2949 RMK AO2 FZRANO
PAMY 170656Z AUTO 12004KT 10SM CLR M03/M03 A2952 RMK AO2 SLP998 T10281033 FZRANO
PAMY 170556Z AUTO 16006KT 10SM CLR M02/M03 A2954 RMK AO2 SLP004 T10221033 10061 21022 56014 FZRANO
PAMY 170456Z AUTO 15007KT 10SM CLR M01/M02 A2955 RMK AO2 SLP008 T10061017 FZRANO
PAMY 170056Z AUTO 11003KT 10SM SCT046 06/M01 A2962 RMK AO2 SLP032 T00561011
PAMY 170004Z AUTO VRB03KT 10SM SCT029 BKN046 06/M01 A2963 RMK AO2
PAMY 162356Z AUTO 24004KT 10SM BKN027 05/00 A2964 RMK AO2 SLP039 60001 T00500000 10067 21022 58008
PAMY 162256Z AUTO 00000KT 10SM BKN025 05/M01 A2965 RMK AO2 SLP041 T00501006
PAMY 162156Z AUTO 24006KT 9SM BKN023 05/01 A2966 RMK AO2 SLP047 T00500011
PAMY 162056Z AUTO 24005KT 9SM FEW025 04/01 A2966 RMK AO2 SLP047 P0001 60001 T00390011 51002
PAMY 161956Z AUTO 22004KT 10SM CLR 02/01 A2966 RMK AO2 SLP047 T00220011 FZRANO
PAMY 161856Z AUTO 22008KT 10SM CLR 00/M01 A2966 RMK AO2 UPB14E30SNE14 SLP047 P0000 T00001006 FZRANO
PAMY 161756Z AUTO 22006KT 10SM -SN CLR M02/M03 A2966 RMK AO2 SNB56 SLP045 P0000 60000 T10221028 10006 21022 51002 FZRANO
PAMY 161723Z AUTO 00000KT 10SM FEW018 M01/M02 A2966 RMK AO2 FZRANO
PAMY 161656Z AUTO 00000KT 10SM BKN018 OVC029 M01/M01 A2966 RMK AO2 UPE11 SLP045 P0000 T10061011 FZRANO
PAMY 161620Z AUTO 21005KT 10SM BKN025 BKN060 00/M01 A2965 RMK AO2 UPE11 P0000 FZRANO
PAMY 161410Z AUTO 25004KT 10SM SCT024 SCT044 M02/M02 A2965 RMK AO2 UPE01 P0000 FZRANO
PAMY 161256Z AUTO 23007KT 9SM -SN CLR M02/M02 A2965 RMK AO2 SNB54 SLP042 P0000 T10171022 FZRANO
PAMY 161056Z AUTO 22009KT 10SM CLR M01/M02 A2963 RMK AO2 SLP036 T10111022 FZRANO
PAMY 160856Z AUTO 23007KT 10SM SCT047 M01/M02 A2962 RMK AO2 UPE11 SLP032 P0000 60000 T10111022 400611017 51010 FZRANO
PAMY 160756Z AUTO 24007KT 7SM UP FEW043 SCT050 M01/M01 A2961 RMK AO2 UPB51 SLP031 P0000 T10061011 FZRANO
PAMY 160656Z AUTO 21007KT 10SM CLR M01/M02 A2960 RMK AO2 UPB15E27 SLP026 P0000 T10061017 FZRANO